Time;durP1;ratioP1;P1;durP2;ratioP2;P2;SDS_P1;SDS_P2;PMS_P1;PMS_P2;Temp;Humidity;BMP_temperature;BMP_pressure;BME280_temperature;BME280_humidity;BME280_pressure;Samples;Min_cycle;Max_cycle;Signal;HPM_P1;HPM_P2
2022/01/02 05:01:16;;;;;;;12.10;6.30;;;4.30;99.90;;;;;;5659328;23;20523;-76
2022/01/02 05:03:44;;;;;;;5.10;4.60;;;4.30;99.90;;;;;;4972969;28;20452;-77
2022/01/02 05:06:11;;;;;;;6.17;4.40;;;4.30;99.90;;;;;;4972736;28;20550;-76
2022/01/02 05:08:42;;;;;;;6.60;4.63;;;4.30;99.90;;;;;;4972846;28;20536;-77
2022/01/02 05:11:09;;;;;;;4.87;4.30;;;4.30;99.90;;;;;;4972697;28;20486;-76
2022/01/02 05:13:36;;;;;;;5.33;4.80;;;4.30;99.90;;;;;;4973775;28;20447;-76
2022/01/02 05:16:03;;;;;;;7.80;4.97;;;4.30;99.90;;;;;;4972799;28;20926;-76
2022/01/02 05:18:32;;;;;;;5.53;4.80;;;4.40;99.90;;;;;;4972594;28;20551;-76
2022/01/02 05:20:59;;;;;;;5.37;4.70;;;4.30;99.90;;;;;;4972264;28;20563;-76
2022/01/02 05:23:26;;;;;;;4.97;4.40;;;4.30;99.90;;;;;;4972723;28;20487;-76
2022/01/02 05:25:53;;;;;;;5.63;5.07;;;4.30;99.90;;;;;;4972590;28;20830;-76
2022/01/02 05:28:20;;;;;;;5.60;4.20;;;4.30;99.90;;;;;;4972539;28;21011;-76
2022/01/02 05:30:46;;;;;;;5.10;4.50;;;4.30;99.90;;;;;;4972338;28;20566;-76
2022/01/02 05:33:13;;;;;;;6.40;4.60;;;4.30;99.90;;;;;;4972502;28;20978;-76
2022/01/02 05:35:42;;;;;;;5.73;5.07;;;4.40;99.90;;;;;;4972357;28;20558;-76
2022/01/02 05:38:09;;;;;;;7.50;5.80;;;4.40;99.90;;;;;;4972395;28;20551;-76
2022/01/02 05:40:35;;;;;;;6.63;5.00;;;4.40;99.90;;;;;;4972303;28;20550;-76
2022/01/02 05:43:06;;;;;;;6.30;5.70;;;4.40;99.90;;;;;;4972457;28;20543;-76
2022/01/02 05:45:33;;;;;;;8.13;6.10;;;4.40;99.90;;;;;;4972463;28;20452;-76
2022/01/02 05:48:02;;;;;;;12.30;7.57;;;4.40;99.90;;;;;;4972239;28;20547;-76
2022/01/02 05:50:29;;;;;;;8.03;6.10;;;4.40;99.90;;;;;;4972081;28;20550;-76
2022/01/02 05:52:57;;;;;;;7.73;5.83;;;4.40;99.90;;;;;;4974518;28;20554;-76
2022/01/02 05:55:24;;;;;;;6.43;5.73;;;4.40;99.90;;;;;;4975645;28;20972;-76
2022/01/02 05:57:51;;;;;;;8.33;6.03;;;4.50;99.90;;;;;;4975751;28;20527;-76
2022/01/02 06:00:18;;;;;;;10.50;7.10;;;4.50;99.90;;;;;;4975266;28;20535;-76
2022/01/02 06:02:45;;;;;;;9.03;6.13;;;4.50;99.90;;;;;;4975569;28;20464;-76
2022/01/02 06:05:14;;;;;;;5.50;5.00;;;4.50;99.90;;;;;;4975785;28;20454;-76
2022/01/02 06:07:41;;;;;;;5.00;4.40;;;4.40;99.90;;;;;;4975645;28;20452;-76
2022/01/02 06:10:10;;;;;;;5.20;4.47;;;4.50;99.90;;;;;;4975247;28;20498;-76
2022/01/02 06:12:37;;;;;;;5.20;4.10;;;4.50;99.90;;;;;;4975411;28;20538;-76
2022/01/02 06:15:06;;;;;;;5.60;4.93;;;4.50;99.90;;;;;;4975117;28;21115;-76
2022/01/02 06:17:33;;;;;;;5.77;4.33;;;4.50;99.90;;;;;;4975596;28;20539;-76
2022/01/02 06:20:00;;;;;;;6.57;5.13;;;4.50;99.90;;;;;;4975324;28;20555;-76
2022/01/02 06:22:26;;;;;;;6.13;4.80;;;4.50;99.90;;;;;;4975284;28;20554;-76
2022/01/02 06:24:54;;;;;;;4.83;4.37;;;4.50;99.90;;;;;;4975206;28;20960;-76
2022/01/02 06:27:22;;;;;;;5.00;4.50;;;4.50;99.90;;;;;;4975261;28;20452;-77
2022/01/02 06:29:49;;;;;;;5.60;4.37;;;4.50;99.90;;;;;;4974935;28;20891;-77
2022/01/02 06:32:16;;;;;;;5.60;4.70;;;4.50;99.90;;;;;;4975273;28;20480;-76
2022/01/02 06:34:46;;;;;;;6.93;5.10;;;4.50;99.90;;;;;;4975019;28;20531;-77
2022/01/02 06:37:13;;;;;;;5.20;4.70;;;4.50;99.90;;;;;;4975062;28;20452;-77
2022/01/02 06:39:39;;;;;;;6.10;5.43;;;4.60;99.90;;;;;;4974797;28;20543;-77
2022/01/02 06:42:07;;;;;;;8.87;6.30;;;4.50;99.90;;;;;;4974849;28;20568;-76
2022/01/02 06:44:36;;;;;;;7.10;5.90;;;4.60;99.90;;;;;;4977088;28;20539;-76
2022/01/02 06:47:03;;;;;;;6.77;5.90;;;4.60;99.90;;;;;;4979048;28;20452;-76
2022/01/02 06:49:30;;;;;;;6.47;5.77;;;4.60;99.90;;;;;;4975890;28;20877;-76
2022/01/02 06:51:57;;;;;;;6.70;5.80;;;4.60;99.90;;;;;;4975019;28;20551;-76
2022/01/02 06:54:24;;;;;;;8.03;5.80;;;4.50;99.90;;;;;;4974680;28;21030;-76
2022/01/02 06:56:51;;;;;;;7.13;6.20;;;4.50;99.90;;;;;;4974639;28;20896;-76
2022/01/02 06:59:18;;;;;;;7.00;6.00;;;4.60;99.90;;;;;;4974749;28;20441;-76
2022/01/02 07:01:47;;;;;;;8.30;6.37;;;4.60;99.90;;;;;;4974258;28;20578;-76
2022/01/02 07:04:14;;;;;;;7.30;6.50;;;4.50;99.90;;;;;;4974369;28;20491;-76
2022/01/02 07:06:40;;;;;;;8.10;5.60;;;4.50;99.90;;;;;;4974433;28;20893;-76
2022/01/02 07:09:07;;;;;;;9.73;6.10;;;4.50;99.90;;;;;;4974225;28;20478;-76
2022/01/02 07:11:34;;;;;;;7.97;6.20;;;4.60;99.90;;;;;;4974188;28;21038;-76
2022/01/02 07:14:01;;;;;;;7.73;6.40;;;4.60;99.90;;;;;;4974396;28;20534;-76
2022/01/02 07:16:28;;;;;;;8.07;6.77;;;4.60;99.90;;;;;;4974328;28;20499;-74
2022/01/02 07:18:56;;;;;;;8.23;6.70;;;4.60;99.90;;;;;;4974140;28;20547;-74
2022/01/02 07:21:24;;;;;;;10.87;7.70;;;4.70;99.90;;;;;;4974204;28;20562;-74
2022/01/02 07:23:52;;;;;;;8.83;7.90;;;4.60;99.90;;;;;;4974477;28;20460;-74
2022/01/02 07:26:19;;;;;;;9.63;6.53;;;4.70;99.90;;;;;;4974022;28;20462;-74
2022/01/02 07:28:46;;;;;;;7.80;6.00;;;4.70;99.90;;;;;;4974294;28;20547;-74
2022/01/02 07:31:13;;;;;;;8.13;5.70;;;4.70;99.90;;;;;;4974025;28;20563;-74
2022/01/02 07:33:40;;;;;;;6.77;5.43;;;4.70;99.90;;;;;;4973951;28;20603;-74
2022/01/02 07:36:08;;;;;;;7.70;5.73;;;4.70;99.90;;;;;;4973852;28;20517;-74
2022/01/02 07:38:35;;;;;;;7.70;6.00;;;4.70;99.90;;;;;;4974202;28;20543;-74
2022/01/02 07:41:02;;;;;;;8.57;5.57;;;4.80;99.90;;;;;;4973960;28;20480;-74
2022/01/02 07:43:29;;;;;;;8.43;5.93;;;4.80;99.90;;;;;;4973698;28;20624;-74
2022/01/02 07:45:56;;;;;;;8.30;5.50;;;4.80;99.90;;;;;;4973738;28;20972;-74
2022/01/02 07:48:23;;;;;;;7.20;6.00;;;4.80;99.90;;;;;;4973692;28;20551;-74
2022/01/02 07:50:49;;;;;;;7.83;5.47;;;4.80;99.90;;;;;;4973186;28;20551;-74
2022/01/02 07:53:18;;;;;;;7.67;5.50;;;4.80;99.90;;;;;;4973503;28;20462;-74
2022/01/02 07:55:45;;;;;;;6.90;5.00;;;4.80;99.90;;;;;;4973777;28;20867;-74
2022/01/02 07:58:11;;;;;;;6.27;5.67;;;4.80;99.90;;;;;;4973676;28;20547;-74
2022/01/02 08:00:38;;;;;;;6.57;5.20;;;4.80;99.90;;;;;;4972767;28;20545;-74
2022/01/02 08:03:05;;;;;;;6.43;5.43;;;4.80;99.90;;;;;;4973584;28;20530;-74
2022/01/02 08:05:32;;;;;;;8.03;5.70;;;4.90;99.90;;;;;;4973265;28;20447;-74
2022/01/02 08:07:59;;;;;;;7.70;5.80;;;4.90;99.90;;;;;;4973649;28;20542;-74
2022/01/02 08:10:28;;;;;;;6.60;5.80;;;4.90;99.90;;;;;;4972998;28;20456;-74
2022/01/02 08:12:55;;;;;;;8.30;6.43;;;4.90;99.90;;;;;;4973475;28;20452;-74
2022/01/02 08:15:22;;;;;;;9.70;8.27;;;4.90;99.90;;;;;;4972688;28;20587;-74
2022/01/02 08:17:49;;;;;;;10.60;9.50;;;4.90;99.90;;;;;;4972890;28;20532;-74
2022/01/02 08:20:16;;;;;;;15.07;9.03;;;4.90;99.90;;;;;;4972854;28;21038;-74
2022/01/02 08:22:43;;;;;;;19.23;11.87;;;5.00;99.90;;;;;;4973351;28;20554;-74
2022/01/02 08:25:10;;;;;;;11.67;10.30;;;5.00;99.90;;;;;;4973374;28;20535;-74
2022/01/02 08:27:38;;;;;;;14.30;10.67;;;5.00;99.90;;;;;;4973207;28;20539;-75
2022/01/02 08:30:06;;;;;;;15.13;9.97;;;5.00;99.90;;;;;;4972982;28;20535;-74
2022/01/02 08:32:33;;;;;;;11.70;8.83;;;5.00;99.90;;;;;;4973332;28;20901;-74
2022/01/02 08:35:00;;;;;;;16.03;11.57;;;5.00;99.90;;;;;;4973207;28;20547;-74
2022/01/02 08:37:27;;;;;;;18.10;12.77;;;5.10;99.90;;;;;;4973163;28;20452;-74
2022/01/02 08:39:54;;;;;;;19.00;12.77;;;5.10;99.90;;;;;;4972944;28;20547;-74
2022/01/02 08:42:21;;;;;;;19.30;13.10;;;5.10;99.90;;;;;;4972942;28;20476;-75
2022/01/02 08:44:49;;;;;;;18.87;13.43;;;5.10;99.90;;;;;;4973014;28;20547;-74
2022/01/02 08:47:16;;;;;;;15.60;11.80;;;5.20;99.90;;;;;;4972689;28;20494;-74
2022/01/02 08:49:43;;;;;;;16.97;12.03;;;5.20;99.90;;;;;;4972906;28;20497;-74
2022/01/02 08:52:10;;;;;;;14.77;11.03;;;5.20;99.90;;;;;;4973101;28;20498;-74
2022/01/02 08:54:38;;;;;;;16.17;10.83;;;5.20;99.90;;;;;;4972748;28;20459;-74
2022/01/02 08:57:05;;;;;;;18.47;10.97;;;5.30;99.90;;;;;;4973385;28;20501;-74
2022/01/02 08:59:32;;;;;;;14.40;10.80;;;5.40;99.90;;;;;;4972356;28;20956;-75
2022/01/02 09:02:00;;;;;;;13.03;10.03;;;5.40;99.90;;;;;;4972398;28;20567;-74
2022/01/02 09:04:27;;;;;;;16.80;11.40;;;5.50;99.90;;;;;;4972921;28;20538;-74
2022/01/02 09:06:54;;;;;;;14.37;11.17;;;5.60;99.90;;;;;;4972750;28;20962;-74
2022/01/02 09:09:22;;;;;;;15.27;11.40;;;5.60;99.90;;;;;;4972510;28;20543;-74
2022/01/02 09:11:49;;;;;;;18.00;11.33;;;5.60;99.90;;;;;;4972760;28;20527;-75
2022/01/02 09:14:16;;;;;;;16.40;12.20;;;5.60;99.90;;;;;;4972478;28;20546;-75
2022/01/02 09:16:44;;;;;;;13.17;9.83;;;5.70;99.90;;;;;;4972668;28;20527;-75
2022/01/02 09:19:13;;;;;;;14.03;10.50;;;5.80;99.90;;;;;;4972371;28;20887;-74
2022/01/02 09:21:40;;;;;;;20.43;11.43;;;5.90;99.90;;;;;;4972511;28;20516;-75
2022/01/02 09:24:07;;;;;;;14.77;11.50;;;6.00;99.90;;;;;;4972550;28;20535;-75
2022/01/02 09:26:34;;;;;;;14.20;11.40;;;6.00;99.90;;;;;;4972310;28;20490;-75
2022/01/02 09:29:05;;;;;;;14.10;10.93;;;6.10;99.90;;;;;;4975837;28;21010;-74
2022/01/02 09:31:31;;;;;;;15.90;11.93;;;6.20;99.90;;;;;;4975953;28;20980;-74
2022/01/02 09:33:58;;;;;;;15.07;11.23;;;6.30;99.90;;;;;;4976122;28;20984;-75
2022/01/02 09:36:27;;;;;;;19.10;12.83;;;6.40;99.90;;;;;;4976574;28;20582;-75
2022/01/02 09:38:54;;;;;;;15.53;11.47;;;6.50;99.90;;;;;;4975890;28;20456;-74
2022/01/02 09:41:22;;;;;;;12.83;10.53;;;6.60;99.90;;;;;;4975861;28;20484;-75
2022/01/02 09:43:49;;;;;;;14.40;10.30;;;6.70;99.90;;;;;;4975904;28;20542;-74
2022/01/02 09:46:20;;;;;;;16.53;10.33;;;6.80;99.90;;;;;;4976123;28;20538;-74
2022/01/02 09:48:48;;;;;;;15.00;10.47;;;6.90;99.90;;;;;;4975904;28;20456;-75
2022/01/02 09:51:16;;;;;;;13.67;10.40;;;7.00;99.90;;;;;;4975838;28;20555;-75
2022/01/02 09:53:45;;;;;;;14.73;9.40;;;7.00;99.90;;;;;;4975495;28;20491;-75
2022/01/02 09:56:12;;;;;;;13.63;10.10;;;7.10;99.90;;;;;;4975652;28;21038;-74
2022/01/02 09:58:42;;;;;;;12.33;9.03;;;7.20;99.90;;;;;;4975711;28;20544;-75
2022/01/02 10:01:15;;;;;;;12.70;9.30;;;7.30;99.90;;;;;;4975031;28;20495;-75
2022/01/02 10:03:43;;;;;;;13.97;9.30;;;7.40;99.90;;;;;;4975638;28;20475;-75
2022/01/02 10:06:10;;;;;;;13.87;9.60;;;7.40;99.90;;;;;;4975508;28;20451;-75
2022/01/02 10:08:38;;;;;;;15.50;10.50;;;7.50;99.90;;;;;;4975686;28;20491;-75
2022/01/02 10:11:10;;;;;;;24.53;15.97;;;7.60;99.90;;;;;;4975484;28;20507;-75
2022/01/02 10:13:42;;;;;;;19.47;14.13;;;7.70;99.90;;;;;;4975521;28;20467;-75
2022/01/02 10:16:23;;;;;;;26.73;21.27;;;7.70;99.90;;;;;;4975604;28;20480;-75
2022/01/02 10:18:52;;;;;;;19.30;14.33;;;7.80;99.90;;;;;;4974896;28;20543;-75
2022/01/02 10:21:40;;;;;;;25.80;21.60;;;7.80;99.90;;;;;;4975521;28;20503;-75
2022/01/02 10:24:23;;;;;;;26.07;20.70;;;7.90;99.90;;;;;;4975397;28;20557;-75
2022/01/02 10:27:26;;;;;;;24.30;21.63;;;8.00;99.90;;;;;;4975360;28;20448;-75
2022/01/02 10:29:55;;;;;;;27.43;24.47;;;8.00;99.90;;;;;;4915163;29;20462;-75
2022/01/02 10:32:33;;;;;;;27.43;23.17;;;8.00;99.90;;;;;;4964236;28;20847;-75
2022/01/02 10:35:13;;;;;;;22.87;18.17;;;8.00;99.90;;;;;;4975212;28;20463;-75
2022/01/02 10:37:41;;;;;;;14.17;11.60;;;8.00;99.90;;;;;;4974389;28;20496;-75
2022/01/02 10:40:26;;;;;;;14.40;12.67;;;8.00;99.90;;;;;;4975140;28;20483;-75
2022/01/02 10:42:54;;;;;;;15.67;12.37;;;8.00;99.90;;;;;;4974977;28;21031;-75
2022/01/02 10:45:35;;;;;;;17.80;11.00;;;8.00;99.90;;;;;;4974894;28;20539;-75
2022/01/02 10:48:03;;;;;;;10.63;8.77;;;8.00;99.90;;;;;;4974732;28;20464;-75
2022/01/02 10:50:30;;;;;;;13.67;10.83;;;8.10;99.90;;;;;;4974668;28;21048;-75
2022/01/02 10:52:57;;;;;;;16.93;10.33;;;8.10;99.90;;;;;;4974914;28;20465;-75
2022/01/02 10:55:25;;;;;;;19.13;11.60;;;8.20;99.90;;;;;;4974690;28;21028;-75
2022/01/02 10:57:55;;;;;;;13.70;9.60;;;8.20;99.90;;;;;;4974648;28;20574;-75
2022/01/02 11:00:26;;;;;;;15.43;10.60;;;8.20;99.90;;;;;;4973998;28;20487;-75
2022/01/02 11:02:53;;;;;;;14.10;10.97;;;8.30;99.90;;;;;;4974568;28;20966;-75
2022/01/02 11:05:22;;;;;;;14.13;10.60;;;8.20;99.90;;;;;;4974625;28;20573;-75
2022/01/02 11:07:51;;;;;;;16.03;11.53;;;8.20;99.90;;;;;;4974672;28;20483;-75
2022/01/02 11:10:20;;;;;;;15.20;11.17;;;8.20;99.90;;;;;;4974142;28;20535;-75
2022/01/02 11:12:49;;;;;;;13.13;10.40;;;8.20;99.90;;;;;;4974250;28;20865;-75
2022/01/02 11:15:18;;;;;;;13.83;10.03;;;8.30;99.90;;;;;;4998163;23;20603;-74
2022/01/02 11:17:45;;;;;;;15.53;11.60;;;8.30;99.90;;;;;;4974294;28;20574;-74
2022/01/02 11:20:14;;;;;;;15.67;10.47;;;8.30;99.90;;;;;;4974024;28;21026;-74
2022/01/02 11:22:45;;;;;;;15.43;9.97;;;8.30;99.90;;;;;;4974636;28;20823;-74
2022/01/02 11:25:21;;;;;;;15.20;11.80;;;8.30;99.90;;;;;;4974195;28;20511;-74
2022/01/02 11:28:00;;;;;;;19.60;15.67;;;8.40;99.90;;;;;;4974346;28;20535;-74
2022/01/02 11:30:39;;;;;;;15.50;12.17;;;8.40;99.90;;;;;;4973855;28;20959;-74
2022/01/02 11:33:09;;;;;;;18.80;12.20;;;8.40;99.90;;;;;;4974083;28;20476;-74
2022/01/02 11:35:38;;;;;;;15.67;12.40;;;8.50;99.90;;;;;;4974021;28;20499;-74
2022/01/02 11:38:06;;;;;;;15.00;11.33;;;8.50;99.90;;;;;;4973609;28;20594;-74
2022/01/02 11:40:57;;;;;;;13.40;11.13;;;8.60;99.90;;;;;;4973848;28;20456;-74
2022/01/02 11:43:55;;;;;;;13.23;11.13;;;8.60;99.90;;;;;;4973731;28;20499;-74
2022/01/02 11:46:30;;;;;;;14.60;10.40;;;8.70;99.90;;;;;;4973641;28;20455;-74
2022/01/02 11:49:17;;;;;;;14.30;11.13;;;8.80;99.90;;;;;;4973579;28;20443;-74
2022/01/02 11:52:06;;;;;;;17.13;11.17;;;8.80;99.90;;;;;;4973518;28;20456;-74
2022/01/02 11:54:48;;;;;;;18.97;10.23;;;8.80;99.90;;;;;;4973427;28;20476;-74
2022/01/02 11:57:55;;;;;;;13.00;9.93;;;8.90;99.90;;;;;;4973802;28;20527;-74
2022/01/02 12:00:39;;;;;;;13.93;10.07;;;8.90;99.90;;;;;;4973325;28;20452;-74
2022/01/02 12:03:23;;;;;;;13.57;9.30;;;9.00;99.90;;;;;;4973281;28;20523;-74
2022/01/02 12:06:14;;;;;;;18.63;10.60;;;9.10;99.90;;;;;;4973372;28;20538;-74
2022/01/02 12:08:41;;;;;;;14.63;11.03;;;9.10;99.90;;;;;;4973350;28;20483;-75
2022/01/02 12:11:38;;;;;;;11.17;9.93;;;9.10;99.90;;;;;;4973208;28;21031;-75
2022/01/02 12:14:07;;;;;;;16.13;10.70;;;9.10;99.90;;;;;;4973110;28;20932;-75
2022/01/02 12:16:35;;;;;;;11.63;10.20;;;9.20;99.90;;;;;;4973245;28;20527;-75
2022/01/02 12:19:03;;;;;;;11.70;9.23;;;9.20;99.90;;;;;;4972969;28;20452;-75
2022/01/02 12:21:32;;;;;;;17.03;10.47;;;9.30;99.90;;;;;;4973443;28;20475;-75
2022/01/02 12:24:00;;;;;;;14.80;11.17;;;9.30;99.90;;;;;;4974217;28;20904;-74
2022/01/02 12:26:34;;;;;;;13.97;9.73;;;9.30;99.90;;;;;;4973938;28;20451;-74
2022/01/02 12:29:06;;;;;;;13.37;9.20;;;9.40;99.90;;;;;;4973044;28;20546;-74
2022/01/02 12:31:34;;;;;;;14.60;10.40;;;9.50;99.90;;;;;;4973219;28;20451;-74
2022/01/02 12:34:11;;;;;;;20.97;11.67;;;9.50;99.90;;;;;;4972837;28;20559;-74
2022/01/02 12:36:41;;;;;;;17.83;13.93;;;9.40;99.90;;;;;;4973111;28;20578;-74
2022/01/02 12:39:09;;;;;;;30.33;15.87;;;9.50;99.90;;;;;;4972998;28;20488;-74
2022/01/02 12:41:38;;;;;;;28.20;17.20;;;9.60;99.90;;;;;;4972790;28;20494;-74
2022/01/02 12:44:08;;;;;;;19.47;14.50;;;9.60;99.90;;;;;;4972782;28;20925;-74
2022/01/02 12:46:42;;;;;;;21.43;14.40;;;9.70;99.90;;;;;;4972969;28;20896;-74
2022/01/02 12:49:12;;;;;;;20.90;13.20;;;9.80;99.90;;;;;;4972894;28;20511;-74
2022/01/02 12:51:41;;;;;;;25.30;16.63;;;9.80;99.90;;;;;;4973316;28;20487;-74
2022/01/02 12:54:10;;;;;;;16.43;12.30;;;9.90;99.90;;;;;;4972963;28;20502;-74
2022/01/02 12:56:42;;;;;;;17.40;12.80;;;10.00;99.90;;;;;;4972868;28;20939;-74
2022/01/02 12:59:14;;;;;;;20.30;15.07;;;10.00;99.90;;;;;;4972476;28;20466;-75
2022/01/02 13:01:52;;;;;;;16.40;13.40;;;10.00;99.90;;;;;;4974350;28;20538;-75
2022/01/02 13:04:22;;;;;;;16.37;11.80;;;10.10;99.90;;;;;;4976833;28;20558;-75
2022/01/02 13:06:50;;;;;;;9.47;7.00;;;10.20;99.90;;;;;;4977176;28;20770;-75
2022/01/02 13:09:28;;;;;;;14.73;10.80;;;10.20;99.90;;;;;;4976390;28;20540;-75
2022/01/02 13:11:56;;;;;;;11.43;8.47;;;10.30;99.90;;;;;;4976538;28;20837;-75
2022/01/02 13:14:37;;;;;;;26.80;19.10;;;10.30;99.90;;;;;;4976438;28;21062;-75
2022/01/02 13:17:08;;;;;;;28.13;17.40;;;10.40;99.90;;;;;;4976681;28;20598;-75
2022/01/02 13:19:40;;;;;;;31.07;19.07;;;10.50;99.90;;;;;;4976360;28;20793;-73
2022/01/02 13:22:08;;;;;;;24.77;18.17;;;10.60;99.90;;;;;;4976353;28;20499;-74
2022/01/02 13:24:37;;;;;;;25.90;17.20;;;10.60;99.90;;;;;;4976432;28;20997;-74
2022/01/02 13:27:06;;;;;;;17.30;13.60;;;10.60;99.90;;;;;;4976362;28;20455;-75
2022/01/02 13:29:34;;;;;;;21.90;15.00;;;10.60;99.90;;;;;;4976146;28;20480;-75
2022/01/02 13:32:15;;;;;;;18.50;14.30;;;10.70;99.90;;;;;;4976685;28;20983;-75
2022/01/02 13:34:44;;;;;;;19.20;13.27;;;10.80;99.90;;;;;;4976030;28;20468;-75
2022/01/02 13:37:12;;;;;;;17.23;12.83;;;10.80;99.90;;;;;;4976301;28;20587;-75
2022/01/02 13:39:41;;;;;;;15.07;10.90;;;10.90;99.90;;;;;;4976005;28;20462;-75
2022/01/02 13:42:08;;;;;;;12.50;9.60;;;10.90;99.90;;;;;;4976182;28;20494;-75
2022/01/02 13:44:40;;;;;;;13.40;9.27;;;10.90;99.90;;;;;;4976056;28;20562;-75
2022/01/02 13:47:07;;;;;;;16.87;9.30;;;11.00;99.90;;;;;;4976318;28;20447;-75
2022/01/02 13:49:57;;;;;;;11.20;8.27;;;11.10;99.90;;;;;;4975923;28;20444;-75
2022/01/02 13:52:24;;;;;;;18.00;9.87;;;11.20;99.90;;;;;;4971487;28;20464;-75
2022/01/02 13:54:51;;;;;;;18.13;12.40;;;11.20;99.90;;;;;;4975887;28;20503;-75
2022/01/02 13:57:18;;;;;;;14.60;10.17;;;11.30;99.90;;;;;;4975674;28;21019;-75
2022/01/02 13:59:45;;;;;;;6.63;5.90;;;11.40;99.90;;;;;;4975359;28;20543;-75
2022/01/02 14:02:13;;;;;;;7.47;5.10;;;11.50;99.90;;;;;;4975529;28;20534;-75
2022/01/02 14:04:58;;;;;;;7.07;5.33;;;11.60;99.90;;;;;;4975805;28;20513;-75
2022/01/02 14:07:30;;;;;;;7.93;5.90;;;11.70;99.90;;;;;;4975719;28;20485;-75
2022/01/02 14:10:00;;;;;;;5.37;3.70;;;11.80;99.90;;;;;;4975162;28;20452;-75
2022/01/02 14:12:28;;;;;;;6.50;4.10;;;12.00;99.90;;;;;;4975083;28;20805;-75
2022/01/02 14:15:07;;;;;;;5.47;2.83;;;12.10;99.90;;;;;;4975211;28;20482;-74
2022/01/02 14:17:34;;;;;;;5.23;2.90;;;12.20;99.90;;;;;;4975587;28;20506;-75
2022/01/02 14:20:05;;;;;;;3.63;2.90;;;12.30;99.90;;;;;;4975221;28;20832;-75
2022/01/02 14:22:35;;;;;;;5.10;3.07;;;12.30;99.90;;;;;;4975302;28;20507;-75
2022/01/02 14:25:04;;;;;;;4.20;3.03;;;12.40;99.90;;;;;;4975410;28;20480;-74
2022/01/02 14:27:32;;;;;;;4.07;3.10;;;12.50;99.90;;;;;;4975426;28;20440;-74
2022/01/02 14:30:00;;;;;;;4.23;3.10;;;12.60;99.90;;;;;;4975223;28;20492;-75
2022/01/02 14:32:28;;;;;;;4.40;2.70;;;12.70;99.90;;;;;;4975215;28;20970;-75
2022/01/02 14:34:56;;;;;;;4.83;3.37;;;12.70;99.90;;;;;;4974972;28;20468;-75
2022/01/02 14:37:24;;;;;;;3.97;3.20;;;12.80;99.90;;;;;;4974914;28;20957;-75
2022/01/02 14:39:51;;;;;;;5.53;3.10;;;12.80;99.90;;;;;;4974772;28;20538;-75
2022/01/02 14:42:19;;;;;;;4.57;3.20;;;12.90;99.90;;;;;;4974943;28;20491;-75
2022/01/02 14:44:46;;;;;;;3.93;3.17;;;13.00;99.90;;;;;;4975093;28;20511;-75
2022/01/02 14:47:13;;;;;;;8.57;3.43;;;13.00;99.90;;;;;;4974866;28;20967;-75
2022/01/02 14:49:40;;;;;;;6.30;3.70;;;13.10;99.90;;;;;;4974464;28;20448;-75
2022/01/02 14:52:07;;;;;;;5.07;2.83;;;13.10;99.90;;;;;;4974819;28;20459;-75
2022/01/02 14:54:36;;;;;;;5.10;3.47;;;13.10;99.90;;;;;;4974739;28;20912;-75
2022/01/02 14:57:04;;;;;;;2.53;2.20;;;13.10;99.90;;;;;;4974841;28;20463;-75
2022/01/02 14:59:31;;;;;;;10.30;4.23;;;13.00;99.90;;;;;;4974516;28;20470;-75
2022/01/02 15:01:59;;;;;;;4.83;3.60;;;13.00;99.90;;;;;;4974366;28;20886;-75
2022/01/02 15:04:26;;;;;;;7.80;4.40;;;13.00;99.90;;;;;;4974588;28;20515;-75
2022/01/02 15:06:53;;;;;;;5.20;3.90;;;12.90;99.90;;;;;;4974654;28;20964;-75
2022/01/02 15:09:21;;;;;;;4.90;3.80;;;12.90;99.90;;;;;;4974218;28;20460;-75
2022/01/02 15:11:50;;;;;;;6.80;4.30;;;12.90;99.90;;;;;;4974980;28;20543;-75
2022/01/02 15:14:17;;;;;;;7.07;4.40;;;12.80;99.90;;;;;;4974271;28;20476;-75
2022/01/02 15:16:48;;;;;;;5.73;4.27;;;12.70;99.90;;;;;;4974198;28;20896;-75
2022/01/02 15:19:17;;;;;;;5.60;4.50;;;12.70;99.90;;;;;;4974366;28;20488;-75
2022/01/02 15:21:45;;;;;;;7.53;5.20;;;12.70;99.90;;;;;;4974258;28;20456;-75
2022/01/02 15:24:12;;;;;;;6.10;5.17;;;12.60;99.90;;;;;;4974303;28;20514;-75
2022/01/02 15:26:40;;;;;;;7.90;5.77;;;12.60;99.90;;;;;;4974122;28;20538;-75
2022/01/02 15:29:08;;;;;;;10.03;7.17;;;12.50;99.90;;;;;;4974159;28;20987;-75
2022/01/02 15:31:35;;;;;;;13.67;7.50;;;12.50;99.90;;;;;;4974404;28;20463;-75
2022/01/02 15:34:02;;;;;;;12.10;6.23;;;12.40;99.90;;;;;;4974165;28;20903;-75
2022/01/02 15:36:29;;;;;;;8.20;5.67;;;12.30;99.90;;;;;;4973969;28;20487;-75
2022/01/02 15:38:56;;;;;;;6.20;5.23;;;12.30;99.90;;;;;;4973757;28;20582;-75
2022/01/02 15:41:24;;;;;;;7.20;5.23;;;12.20;99.90;;;;;;4973959;28;20536;-75
2022/01/02 15:43:52;;;;;;;8.67;6.20;;;12.20;99.90;;;;;;4973708;28;20475;-75
2022/01/02 15:46:20;;;;;;;5.60;5.00;;;12.10;99.90;;;;;;4974048;28;20858;-75
2022/01/02 15:48:47;;;;;;;10.00;5.70;;;12.10;99.90;;;;;;4973766;28;20456;-75
2022/01/02 15:51:14;;;;;;;8.00;5.70;;;12.00;99.90;;;;;;4973855;28;20563;-75
2022/01/02 15:53:41;;;;;;;6.70;4.93;;;11.90;99.90;;;;;;4973716;28;20471;-75
2022/01/02 15:56:08;;;;;;;9.20;6.03;;;11.80;99.90;;;;;;4974018;28;20456;-75
2022/01/02 15:58:35;;;;;;;6.83;5.47;;;11.80;99.90;;;;;;4973391;28;20925;-75
2022/01/02 16:01:02;;;;;;;7.70;5.60;;;11.70;99.90;;;;;;4973203;28;20511;-75
2022/01/02 16:03:30;;;;;;;5.97;5.37;;;11.70;99.90;;;;;;4973835;28;20491;-75
2022/01/02 16:05:57;;;;;;;8.23;5.30;;;11.60;99.90;;;;;;4973713;28;20547;-75
2022/01/02 16:08:26;;;;;;;7.13;5.53;;;11.50;99.90;;;;;;4973159;28;20868;-75
2022/01/02 16:10:53;;;;;;;7.90;5.30;;;11.50;99.90;;;;;;4973020;28;20448;-77
2022/01/02 16:13:20;;;;;;;8.27;5.93;;;11.40;99.90;;;;;;4973551;28;20456;-76
2022/01/02 16:15:47;;;;;;;9.93;7.30;;;11.30;99.90;;;;;;4974021;28;20452;-76
2022/01/02 16:18:15;;;;;;;10.20;6.27;;;11.30;99.90;;;;;;4973412;28;20583;-76
2022/01/02 16:20:45;;;;;;;8.27;6.00;;;11.30;99.90;;;;;;4973097;28;20510;-76
2022/01/02 16:23:12;;;;;;;12.00;4.53;;;11.20;99.90;;;;;;4973444;28;20463;-76
2022/01/02 16:25:41;;;;;;;6.80;4.50;;;11.10;99.90;;;;;;4973452;28;21014;-76
2022/01/02 16:28:08;;;;;;;7.73;5.03;;;11.10;99.90;;;;;;4973723;28;20459;-76
2022/01/02 16:30:35;;;;;;;7.20;4.10;;;11.00;99.90;;;;;;4973007;28;20896;-76
2022/01/02 16:33:03;;;;;;;5.03;3.73;;;10.90;99.90;;;;;;4973366;28;20539;-76
2022/01/02 16:35:30;;;;;;;6.33;4.63;;;10.90;99.90;;;;;;4972775;28;21027;-76
2022/01/02 16:37:58;;;;;;;4.90;4.13;;;10.80;99.90;;;;;;4972857;28;20532;-76
2022/01/02 16:40:25;;;;;;;4.37;3.50;;;10.80;99.90;;;;;;4973187;28;20487;-76
2022/01/02 16:42:53;;;;;;;5.33;3.67;;;10.80;99.90;;;;;;4973589;28;20484;-76
2022/01/02 16:45:21;;;;;;;6.87;4.40;;;10.70;99.90;;;;;;4973200;28;20468;-76
2022/01/02 16:47:48;;;;;;;6.50;4.37;;;10.80;99.90;;;;;;4973318;28;20531;-76
2022/01/02 16:50:15;;;;;;;6.73;3.43;;;10.70;99.90;;;;;;4972972;28;20982;-76
2022/01/02 16:52:42;;;;;;;9.50;3.90;;;10.70;99.90;;;;;;4973014;28;20576;-76
2022/01/02 16:55:11;;;;;;;7.20;3.57;;;10.70;99.90;;;;;;4973127;28;20518;-76
2022/01/02 16:57:38;;;;;;;6.33;4.23;;;10.70;99.90;;;;;;4972933;28;20543;-76
2022/01/02 17:00:07;;;;;;;12.57;5.60;;;10.70;99.90;;;;;;4972870;28;20472;-76
2022/01/02 17:02:34;;;;;;;9.53;6.50;;;10.80;99.90;;;;;;4972739;28;20460;-75
2022/01/02 17:05:01;;;;;;;9.87;6.00;;;10.80;99.90;;;;;;4972747;28;20571;-75
2022/01/02 17:07:28;;;;;;;10.33;4.93;;;10.80;99.90;;;;;;4973205;28;20483;-75
2022/01/02 17:09:56;;;;;;;10.93;6.43;;;10.80;99.90;;;;;;4972897;28;20460;-75
2022/01/02 17:12:24;;;;;;;15.27;6.13;;;10.80;99.90;;;;;;4973073;28;20459;-75
2022/01/02 17:14:51;;;;;;;31.57;11.93;;;10.80;99.90;;;;;;5023814;23;20491;-79
2022/01/02 17:17:18;;;;;;;22.33;11.33;;;10.80;99.90;;;;;;4993636;28;20486;-77
2022/01/02 17:19:45;;;;;;;24.80;10.80;;;10.80;99.90;;;;;;4993557;28;20533;-77
2022/01/02 17:22:12;;;;;;;25.83;13.00;;;10.80;99.90;;;;;;4993956;28;21013;-77
2022/01/02 17:24:41;;;;;;;27.50;15.30;;;10.80;99.90;;;;;;4993979;28;20566;-77
2022/01/02 17:27:10;;;;;;;12.43;8.67;;;10.80;99.90;;;;;;4994077;28;20502;-77
2022/01/02 17:29:38;;;;;;;11.53;9.30;;;10.70;99.90;;;;;;4993580;28;20465;-77
2022/01/02 17:32:09;;;;;;;10.47;9.13;;;10.80;99.90;;;;;;4993498;28;20506;-77
2022/01/02 17:34:37;;;;;;;9.00;6.57;;;10.80;99.90;;;;;;4993891;28;20510;-77
2022/01/02 17:37:07;;;;;;;8.40;5.30;;;10.80;99.90;;;;;;4993532;28;20496;-77
2022/01/02 17:39:34;;;;;;;9.27;5.43;;;10.80;99.90;;;;;;4993106;28;20490;-77
2022/01/02 17:42:04;;;;;;;6.10;4.70;;;10.80;99.90;;;;;;4993443;28;20455;-77
2022/01/02 17:44:31;;;;;;;5.27;4.50;;;10.80;99.90;;;;;;4993087;28;20895;-77
2022/01/02 17:47:00;;;;;;;5.37;4.47;;;10.80;99.90;;;;;;4993141;28;20578;-77
2022/01/02 17:49:28;;;;;;;7.47;4.90;;;10.70;99.90;;;;;;4995583;28;21050;-77
2022/01/02 17:51:55;;;;;;;8.27;4.90;;;10.70;99.90;;;;;;4997088;28;20455;-77
2022/01/02 17:54:22;;;;;;;6.43;4.23;;;10.60;99.90;;;;;;4996651;28;21041;-77